Time;durP1;ratioP1;P1;durP2;ratioP2;P2;SDS_P1;SDS_P2;PMS_P1;PMS_P2;Temp;Humidity;BMP_temperature;BMP_pressure;BME280_temperature;BME280_humidity;BME280_pressure;Samples;Min_cycle;Max_cycle;Signal;HPM_P1;HPM_P2
2021/01/26 00:00:18;;;;;;;4.80;1.50;;;2.10;99.90;;;;;;5035309;28;20047;-55
2021/01/26 00:02:44;;;;;;;5.40;1.80;;;2.10;99.90;;;;;;5044691;28;20025;-55
2021/01/26 00:05:11;;;;;;;4.20;1.58;;;2.10;99.90;;;;;;5042603;28;20047;-53
2021/01/26 00:07:37;;;;;;;4.13;1.65;;;2.10;99.90;;;;;;5037648;28;20036;-57
2021/01/26 00:10:05;;;;;;;8.55;2.05;;;2.20;99.90;;;;;;5036147;28;20372;-56
2021/01/26 00:12:31;;;;;;;6.45;2.17;;;2.20;99.90;;;;;;5034960;28;20083;-57
2021/01/26 00:14:57;;;;;;;4.10;1.70;;;2.10;99.90;;;;;;5035073;28;20479;-57
2021/01/26 00:17:22;;;;;;;4.55;1.88;;;2.20;99.90;;;;;;5040229;28;20028;-54
2021/01/26 00:19:48;;;;;;;8.02;1.80;;;2.20;99.90;;;;;;5035357;28;20092;-57
2021/01/26 00:22:14;;;;;;;5.40;1.50;;;2.20;99.90;;;;;;5034739;28;20116;-53
2021/01/26 00:24:40;;;;;;;4.97;1.85;;;2.20;99.90;;;;;;5034372;28;20037;-58
2021/01/26 00:27:05;;;;;;;8.27;1.90;;;2.30;99.90;;;;;;5038191;28;20032;-56
2021/01/26 00:29:31;;;;;;;4.22;1.77;;;2.40;99.90;;;;;;5039446;28;20029;-56
2021/01/26 00:31:57;;;;;;;5.18;1.90;;;2.30;99.90;;;;;;5044343;28;20029;-57
2021/01/26 00:34:23;;;;;;;6.15;1.88;;;2.30;99.90;;;;;;5037828;28;20513;-56
2021/01/26 00:36:48;;;;;;;2.92;1.40;;;2.30;99.90;;;;;;5045880;28;20434;-55
2021/01/26 00:39:14;;;;;;;6.32;1.88;;;2.30;99.90;;;;;;5033329;28;20022;-56
2021/01/26 00:41:40;;;;;;;3.72;1.73;;;2.30;99.90;;;;;;5034183;28;20034;-56
2021/01/26 00:44:06;;;;;;;3.63;1.48;;;2.20;99.90;;;;;;5034125;28;20033;-58
2021/01/26 00:46:31;;;;;;;3.28;1.50;;;2.30;99.90;;;;;;5034433;28;20028;-54
2021/01/26 00:48:57;;;;;;;5.47;1.60;;;2.30;99.90;;;;;;5038730;28;20094;-59
2021/01/26 00:51:23;;;;;;;8.75;2.88;;;2.20;99.90;;;;;;5033869;28;20535;-57
2021/01/26 00:53:49;;;;;;;5.18;1.40;;;2.20;99.90;;;;;;5037376;28;20027;-54
2021/01/26 00:56:14;;;;;;;2.92;1.40;;;2.20;99.90;;;;;;5038765;28;20056;-55
2021/01/26 00:58:40;;;;;;;3.90;1.77;;;2.20;99.90;;;;;;5041944;28;20095;-57
2021/01/26 01:01:06;;;;;;;4.53;1.40;;;2.10;99.90;;;;;;5033992;28;20026;-56
2021/01/26 01:03:32;;;;;;;3.30;1.55;;;2.10;99.90;;;;;;5051697;28;20033;-54
2021/01/26 01:05:58;;;;;;;4.38;1.70;;;2.10;99.90;;;;;;5039235;28;20044;-56
2021/01/26 01:08:25;;;;;;;5.95;1.80;;;2.00;99.90;;;;;;5044430;28;20383;-55
2021/01/26 01:10:52;;;;;;;3.40;1.73;;;2.10;99.90;;;;;;5033470;28;20052;-58
2021/01/26 01:13:18;;;;;;;4.43;1.70;;;2.00;99.90;;;;;;5033044;28;20160;-55
2021/01/26 01:15:43;;;;;;;10.55;1.80;;;2.00;99.90;;;;;;5033481;28;20030;-56
2021/01/26 01:18:09;;;;;;;6.18;1.92;;;2.00;99.90;;;;;;5038247;28;20458;-54
2021/01/26 01:20:35;;;;;;;7.13;1.85;;;2.00;99.90;;;;;;5039436;28;20104;-57
2021/01/26 01:23:01;;;;;;;3.42;1.90;;;1.90;99.90;;;;;;5033395;28;20116;-57
2021/01/26 01:25:27;;;;;;;8.02;2.33;;;2.00;99.90;;;;;;5038063;28;20474;-57
2021/01/26 01:27:53;;;;;;;4.45;1.90;;;1.90;99.90;;;;;;5036038;28;20039;-57
2021/01/26 01:30:22;;;;;;;5.95;2.42;;;1.90;99.90;;;;;;5042736;28;20700;-57
2021/01/26 01:32:48;;;;;;;3.88;1.85;;;1.80;99.90;;;;;;5039802;28;20029;-58
2021/01/26 01:35:15;;;;;;;5.07;1.70;;;1.70;99.90;;;;;;5041266;28;20483;-55
2021/01/26 01:37:41;;;;;;;4.00;1.65;;;1.60;99.90;;;;;;5037032;28;20076;-57
2021/01/26 01:40:09;;;;;;;3.05;1.45;;;1.70;99.90;;;;;;5033888;28;20038;-56
2021/01/26 01:42:35;;;;;;;6.00;2.00;;;1.70;99.90;;;;;;5039294;28;20029;-54
2021/01/26 01:45:01;;;;;;;3.15;1.77;;;1.60;99.90;;;;;;5040328;28;20096;-57
2021/01/26 01:47:34;;;;;;;4.32;1.70;;;1.60;99.90;;;;;;5032635;28;20117;-54
2021/01/26 01:50:01;;;;;;;3.80;1.70;;;1.60;99.90;;;;;;5034284;28;20029;-54
2021/01/26 01:52:34;;;;;;;3.63;1.52;;;1.60;99.90;;;;;;5034253;28;20029;-55
2021/01/26 01:55:14;;;;;;;4.28;1.80;;;1.50;99.90;;;;;;5031650;28;20119;-53
2021/01/26 01:58:04;;;;;;;3.65;1.65;;;1.40;99.90;;;;;;5033794;28;20037;-55
2021/01/26 02:00:33;;;;;;;5.03;1.73;;;1.40;99.90;;;;;;5049930;28;20029;-57
2021/01/26 02:03:14;;;;;;;6.85;1.70;;;1.30;99.90;;;;;;5043434;28;20036;-53
2021/01/26 02:05:41;;;;;;;3.67;1.55;;;1.30;99.90;;;;;;5037266;28;20061;-57
2021/01/26 02:08:22;;;;;;;4.18;2.00;;;1.20;99.90;;;;;;5043663;28;20063;-53
2021/01/26 02:10:48;;;;;;;8.18;2.38;;;1.20;99.90;;;;;;5033997;28;20057;-53
2021/01/26 02:13:14;;;;;;;6.47;2.08;;;1.10;99.90;;;;;;5036608;28;20106;-55
2021/01/26 02:15:40;;;;;;;3.30;2.03;;;1.10;99.90;;;;;;5034498;28;20121;-53
2021/01/26 02:18:32;;;;;;;6.43;1.88;;;1.00;99.90;;;;;;5032107;28;20030;-58
2021/01/26 02:21:18;;;;;;;3.85;2.20;;;1.10;99.90;;;;;;5052550;28;20060;-57
2021/01/26 02:24:02;;;;;;;5.88;2.17;;;1.10;99.90;;;;;;5043020;28;20049;-57
2021/01/26 02:26:46;;;;;;;5.40;2.00;;;1.00;99.90;;;;;;5029893;28;20094;-55
2021/01/26 02:29:21;;;;;;;4.75;2.40;;;1.00;99.90;;;;;;5036339;28;20440;-53
2021/01/26 02:32:15;;;;;;;5.32;2.30;;;0.90;99.90;;;;;;5042521;28;20359;-57
2021/01/26 02:34:53;;;;;;;4.88;1.90;;;0.90;99.90;;;;;;5039362;28;20041;-54
2021/01/26 02:37:24;;;;;;;6.43;2.40;;;0.90;99.90;;;;;;5034958;28;20037;-55
2021/01/26 02:39:59;;;;;;;5.53;2.55;;;0.90;99.90;;;;;;5031708;28;20083;-53
2021/01/26 02:42:36;;;;;;;5.15;2.45;;;0.90;99.90;;;;;;5031835;28;20112;-54
2021/01/26 02:45:17;;;;;;;6.32;2.22;;;0.90;99.90;;;;;;5031857;28;20033;-53
2021/01/26 02:47:53;;;;;;;4.15;2.15;;;0.90;99.90;;;;;;5032063;28;20034;-54
2021/01/26 02:50:36;;;;;;;7.15;1.88;;;0.80;99.90;;;;;;5031209;28;20165;-53
2021/01/26 02:53:27;;;;;;;7.70;2.92;;;0.80;99.90;;;;;;5031915;28;20100;-54
2021/01/26 02:56:05;;;;;;;4.95;2.17;;;0.80;99.90;;;;;;5031567;28;21680;-56
2021/01/26 02:58:46;;;;;;;4.80;2.28;;;0.80;99.90;;;;;;5037891;28;20389;-56
2021/01/26 03:01:13;;;;;;;4.25;2.28;;;0.70;99.90;;;;;;5032306;28;20025;-57
2021/01/26 03:03:47;;;;;;;4.65;2.30;;;0.60;99.90;;;;;;5036439;28;20032;-56
2021/01/26 03:06:18;;;;;;;7.78;2.70;;;0.60;99.90;;;;;;5041512;28;20025;-55
2021/01/26 03:08:55;;;;;;;5.32;2.63;;;0.50;99.90;;;;;;5032256;28;20037;-55
2021/01/26 03:11:32;;;;;;;5.93;2.70;;;0.50;99.90;;;;;;5031736;28;20037;-57
2021/01/26 03:14:12;;;;;;;6.93;2.22;;;0.30;99.90;;;;;;5031202;28;20037;-53
2021/01/26 03:16:42;;;;;;;4.68;2.50;;;0.30;99.90;;;;;;5033680;28;20044;-54
2021/01/26 03:19:18;;;;;;;5.70;2.28;;;0.20;99.90;;;;;;5046522;28;20034;-56
2021/01/26 03:21:49;;;;;;;6.80;2.70;;;0.10;99.90;;;;;;5034765;28;20025;-54
2021/01/26 03:24:20;;;;;;;5.80;2.15;;;0.10;99.90;;;;;;5042084;28;20037;-54
2021/01/26 03:26:46;;;;;;;5.40;2.58;;;0.20;99.90;;;;;;5038005;28;20030;-56
2021/01/26 03:29:18;;;;;;;6.72;2.33;;;0.20;99.90;;;;;;5035595;28;20033;-55
2021/01/26 03:31:52;;;;;;;7.05;2.60;;;0.20;99.90;;;;;;5044964;28;20040;-58
2021/01/26 03:34:19;;;;;;;5.85;2.60;;;0.10;99.90;;;;;;5040194;28;20032;-55
2021/01/26 03:36:46;;;;;;;5.53;2.40;;;0.10;99.90;;;;;;5031216;28;20034;-53
2021/01/26 03:39:12;;;;;;;5.43;2.42;;;0.00;99.90;;;;;;5030848;28;20390;-56
2021/01/26 03:41:39;;;;;;;5.85;2.92;;;0.00;99.90;;;;;;5031690;28;20034;-55
2021/01/26 03:44:05;;;;;;;5.38;2.45;;;0.00;99.90;;;;;;5062667;28;20841;-55
2021/01/26 03:46:46;;;;;;;8.40;2.60;;;0.10;99.90;;;;;;5034906;28;20033;-54
2021/01/26 03:49:54;;;;;;;5.45;2.40;;;0.10;99.90;;;;;;5037306;28;20108;-53
2021/01/26 03:52:40;;;;;;;8.25;3.00;;;0.00;99.90;;;;;;5044519;28;20045;-55
2021/01/26 03:55:29;;;;;;;8.23;2.70;;;0.10;99.90;;;;;;5037058;28;20037;-56
2021/01/26 03:58:21;;;;;;;8.07;3.15;;;0.10;99.90;;;;;;5018689;28;20525;-57
2021/01/26 04:01:05;;;;;;;6.85;2.83;;;0.10;99.90;;;;;;5030171;28;20029;-55
2021/01/26 04:03:49;;;;;;;6.15;2.90;;;0.10;99.90;;;;;;5031091;28;20033;-55
2021/01/26 04:06:46;;;;;;;7.15;3.15;;;0.10;99.90;;;;;;5031152;28;20037;-55
2021/01/26 04:09:22;;;;;;;4.85;2.60;;;0.10;99.90;;;;;;5040024;28;20063;-57
2021/01/26 04:11:54;;;;;;;4.47;2.53;;;0.10;99.90;;;;;;5032991;28;20025;-56
2021/01/26 04:14:34;;;;;;;6.97;2.60;;;0.10;99.90;;;;;;5041742;28;20029;-54
2021/01/26 04:17:11;;;;;;;7.22;2.88;;;0.10;99.90;;;;;;5041987;28;20033;-57
2021/01/26 04:19:42;;;;;;;9.73;2.72;;;0.10;99.90;;;;;;5041916;28;20021;-55
2021/01/26 04:22:11;;;;;;;7.05;3.03;;;0.00;99.90;;;;;;5041829;28;20030;-52
2021/01/26 04:24:37;;;;;;;6.15;2.55;;;0.00;99.90;;;;;;5030096;28;20022;-57
2021/01/26 04:27:13;;;;;;;6.78;2.92;;;0.00;99.90;;;;;;5037819;28;20039;-56
2021/01/26 04:29:39;;;;;;;4.50;2.80;;;0.00;99.90;;;;;;5031496;28;20036;-55
2021/01/26 04:32:05;;;;;;;8.68;3.03;;;-0.10;99.90;;;;;;5038256;28;20036;-58
2021/01/26 04:34:30;;;;;;;7.25;3.15;;;-0.10;99.90;;;;;;5033706;28;20049;-56
2021/01/26 04:36:56;;;;;;;6.38;3.08;;;-0.10;99.90;;;;;;5040726;28;20108;-54
2021/01/26 04:39:22;;;;;;;7.68;3.45;;;0.00;99.90;;;;;;5041653;28;20025;-53
2021/01/26 04:42:06;;;;;;;4.85;2.75;;;-0.10;99.90;;;;;;5046190;28;20450;-54
2021/01/26 04:44:55;;;;;;;5.05;2.70;;;-0.20;99.90;;;;;;5039874;28;20025;-54
2021/01/26 04:47:43;;;;;;;5.90;2.70;;;-0.20;99.90;;;;;;5042745;28;20036;-57
2021/01/26 04:50:33;;;;;;;7.10;3.13;;;-0.20;99.90;;;;;;5028814;28;20441;-55
2021/01/26 04:53:24;;;;;;;7.43;2.80;;;-0.20;99.90;;;;;;5042554;28;20043;-56
2021/01/26 04:56:18;;;;;;;10.10;3.55;;;-0.20;99.90;;;;;;5031965;28;20033;-55
2021/01/26 04:58:56;;;;;;;5.57;3.27;;;-0.20;99.90;;;;;;5017449;28;20045;-56
2021/01/26 05:01:37;;;;;;;5.30;3.10;;;-0.20;99.90;;;;;;5033125;28;20030;-53
2021/01/26 05:04:12;;;;;;;6.47;3.50;;;-0.20;99.90;;;;;;5033192;28;20063;-55
2021/01/26 05:06:48;;;;;;;5.95;2.97;;;-0.20;99.90;;;;;;5027326;28;20041;-55
2021/01/26 05:09:20;;;;;;;10.63;4.57;;;-0.20;99.90;;;;;;5039376;28;20037;-55
2021/01/26 05:11:47;;;;;;;12.32;4.25;;;0.00;99.90;;;;;;5050609;28;20411;-54
2021/01/26 05:14:19;;;;;;;7.10;3.05;;;0.00;99.90;;;;;;5038256;28;20084;-55
2021/01/26 05:17:04;;;;;;;9.00;3.80;;;0.00;99.90;;;;;;5042186;28;20045;-57
2021/01/26 05:19:49;;;;;;;7.57;3.55;;;-0.10;99.90;;;;;;5039481;28;20032;-55
2021/01/26 05:22:35;;;;;;;6.25;3.67;;;-0.10;99.90;;;;;;5041493;28;20551;-53
2021/01/26 05:25:06;;;;;;;7.25;3.53;;;-0.20;99.90;;;;;;5035817;28;20041;-54
2021/01/26 05:27:32;;;;;;;8.07;3.78;;;-0.20;99.90;;;;;;5033871;28;20057;-55
2021/01/26 05:30:00;;;;;;;7.07;3.38;;;-0.10;99.90;;;;;;5043391;28;20355;-55
2021/01/26 05:32:27;;;;;;;6.18;3.53;;;-0.20;99.90;;;;;;5041132;28;20446;-52
2021/01/26 05:34:54;;;;;;;11.13;4.30;;;-0.10;99.90;;;;;;5035006;28;20506;-53
2021/01/26 05:37:22;;;;;;;9.05;3.90;;;-0.10;99.90;;;;;;5033435;28;20041;-55
2021/01/26 05:40:02;;;;;;;8.88;3.88;;;-0.10;99.90;;;;;;5041310;28;20087;-55
2021/01/26 05:42:28;;;;;;;8.88;4.30;;;-0.10;99.90;;;;;;5040947;28;20041;-52
2021/01/26 05:45:00;;;;;;;6.45;3.40;;;-0.10;99.90;;;;;;5033432;28;20029;-53
2021/01/26 05:47:32;;;;;;;7.55;3.50;;;-0.10;99.90;;;;;;5043073;28;20033;-54
2021/01/26 05:49:58;;;;;;;7.28;3.50;;;-0.10;99.90;;;;;;5033640;28;20033;-54
2021/01/26 05:52:40;;;;;;;8.43;4.80;;;-0.20;99.90;;;;;;5039805;28;20460;-55
2021/01/26 05:55:24;;;;;;;7.03;4.60;;;0.00;99.90;;;;;;5038872;28;20144;-57
2021/01/26 05:57:52;;;;;;;8.45;4.15;;;0.00;99.90;;;;;;5032349;28;20037;-51
2021/01/26 06:00:20;;;;;;;9.85;4.07;;;0.00;99.90;;;;;;5031562;28;20122;-54
2021/01/26 06:02:47;;;;;;;10.95;5.05;;;-0.10;99.90;;;;;;5043248;28;20029;-54
2021/01/26 06:05:20;;;;;;;9.90;6.00;;;-0.10;99.90;;;;;;5039499;28;20501;-57
2021/01/26 06:08:04;;;;;;;12.18;6.47;;;0.10;99.90;;;;;;5033231;28;20030;-55
2021/01/26 06:10:32;;;;;;;10.23;6.23;;;0.20;99.90;;;;;;5033238;28;20021;-53
2021/01/26 06:12:58;;;;;;;14.88;6.72;;;0.30;99.90;;;;;;5032743;28;20280;-54
2021/01/26 06:15:30;;;;;;;15.27;6.47;;;0.40;99.90;;;;;;5040145;28;20034;-54
2021/01/26 06:18:19;;;;;;;11.02;6.18;;;0.40;99.90;;;;;;5013242;28;20101;-52
2021/01/26 06:21:03;;;;;;;12.40;6.50;;;0.50;99.90;;;;;;5038609;28;20128;-53
2021/01/26 06:23:31;;;;;;;15.55;6.60;;;0.50;99.90;;;;;;5033806;28;20155;-55
2021/01/26 06:25:59;;;;;;;11.80;6.57;;;0.50;99.90;;;;;;5031720;28;20033;-54
2021/01/26 06:28:41;;;;;;;14.77;6.55;;;0.60;99.90;;;;;;5033468;28;20029;-56
2021/01/26 06:31:34;;;;;;;9.73;6.63;;;0.50;99.90;;;;;;5031835;28;20029;-51
2021/01/26 06:34:37;;;;;;;10.65;6.75;;;0.50;99.90;;;;;;5040692;28;20032;-57
2021/01/26 06:37:28;;;;;;;13.88;7.25;;;0.60;99.90;;;;;;5022445;28;20037;-52
2021/01/26 06:40:16;;;;;;;11.27;6.55;;;0.60;99.90;;;;;;5032290;28;20033;-57
2021/01/26 06:43:10;;;;;;;14.50;7.57;;;0.60;99.90;;;;;;5045601;28;20040;-55
2021/01/26 06:45:38;;;;;;;12.02;7.20;;;0.60;99.90;;;;;;5036892;28;20029;-57
2021/01/26 06:48:19;;;;;;;14.13;7.10;;;0.70;99.90;;;;;;5047030;28;20410;-54
2021/01/26 06:51:09;;;;;;;17.05;8.35;;;0.70;99.90;;;;;;5031402;28;20060;-55
2021/01/26 06:53:48;;;;;;;14.88;7.30;;;0.70;99.90;;;;;;5031920;28;20041;-56
2021/01/26 06:56:28;;;;;;;17.67;7.13;;;0.70;99.90;;;;;;5031637;28;20094;-57
2021/01/26 06:59:26;;;;;;;13.55;7.40;;;0.70;99.90;;;;;;5031545;28;20498;-52
2021/01/26 07:02:29;;;;;;;18.02;7.45;;;0.80;99.90;;;;;;5031657;28;20033;-53
2021/01/26 07:05:26;;;;;;;14.60;8.32;;;0.80;99.90;;;;;;5011211;28;20117;-56
2021/01/26 07:08:10;;;;;;;13.05;6.97;;;0.80;99.90;;;;;;5024531;28;20033;-55
2021/01/26 07:10:53;;;;;;;18.67;7.60;;;0.90;99.90;;;;;;5034510;28;20041;-52
2021/01/26 07:13:19;;;;;;;12.88;7.07;;;0.80;99.90;;;;;;5031298;28;20037;-54
2021/01/26 07:16:06;;;;;;;12.63;8.00;;;0.80;99.90;;;;;;5030725;28;20045;-55
2021/01/26 07:19:10;;;;;;;16.75;7.30;;;0.80;99.90;;;;;;5025837;28;20045;-56
2021/01/26 07:21:48;;;;;;;13.45;8.18;;;0.90;99.90;;;;;;5029853;28;20483;-56
2021/01/26 07:24:44;;;;;;;16.23;7.95;;;0.80;99.90;;;;;;5012249;28;20814;-58
2021/01/26 07:27:42;;;;;;;13.90;8.18;;;0.80;99.90;;;;;;5033385;28;20037;-55
2021/01/26 07:30:23;;;;;;;16.75;9.00;;;0.90;99.90;;;;;;5042755;28;20379;-56
2021/01/26 07:33:14;;;;;;;16.55;8.85;;;0.90;99.90;;;;;;5043900;28;20410;-53
2021/01/26 07:36:01;;;;;;;14.68;7.90;;;0.90;99.90;;;;;;5031295;28;20064;-56
2021/01/26 07:38:41;;;;;;;15.15;7.95;;;0.80;99.90;;;;;;5028369;28;20021;-57
2021/01/26 07:41:16;;;;;;;17.83;8.75;;;0.90;99.90;;;;;;5032368;28;20594;-57
2021/01/26 07:43:46;;;;;;;21.90;8.50;;;1.00;99.90;;;;;;5030630;28;20394;-58
2021/01/26 07:46:25;;;;;;;15.02;7.93;;;1.00;99.90;;;;;;5029710;28;20048;-55
2021/01/26 07:49:14;;;;;;;21.73;11.70;;;1.00;99.90;;;;;;5031163;28;20033;-55
2021/01/26 07:51:47;;;;;;;16.98;8.70;;;0.90;99.90;;;;;;5042466;28;20489;-57
2021/01/26 07:54:34;;;;;;;14.30;8.35;;;1.00;99.90;;;;;;5042913;28;20074;-54
2021/01/26 07:57:03;;;;;;;17.10;8.50;;;1.00;99.90;;;;;;5037934;28;20037;-57
2021/01/26 07:59:33;;;;;;;20.17;9.88;;;1.00;99.90;;;;;;5035185;28;20033;-53
2021/01/26 08:02:03;;;;;;;18.88;10.50;;;1.00;99.90;;;;;;5030973;28;20725;-57
2021/01/26 08:04:35;;;;;;;23.98;13.38;;;1.10;99.90;;;;;;5037376;28;20029;-55
2021/01/26 08:07:04;;;;;;;17.00;9.13;;;1.10;99.90;;;;;;5032938;28;20451;-55
2021/01/26 08:09:43;;;;;;;19.15;8.48;;;1.10;99.90;;;;;;5032309;28;20037;-55
2021/01/26 08:12:18;;;;;;;15.93;8.32;;;1.20;99.90;;;;;;5023460;28;20445;-58
2021/01/26 08:14:47;;;;;;;;;;;1.20;99.90;;;;;;5031694;28;20029;-57
2021/01/26 08:17:26;;;;;;;18.10;9.38;;;1.20;99.90;;;;;;5029883;28;19916;-53
2021/01/26 08:20:23;;;;;;;14.60;8.32;;;1.20;99.90;;;;;;5031595;28;20083;-56
2021/01/26 08:22:57;;;;;;;19.58;10.55;;;1.30;99.90;;;;;;5035066;28;20041;-54
2021/01/26 08:25:40;;;;;;;15.05;8.00;;;1.30;99.90;;;;;;5034023;28;20025;-54
2021/01/26 08:28:38;;;;;;;19.60;10.88;;;1.30;99.90;;;;;;5033964;28;20108;-56
2021/01/26 08:31:25;;;;;;;16.88;9.55;;;1.20;99.90;;;;;;5032281;28;20045;-57
2021/01/26 08:33:53;;;;;;;17.95;8.32;;;1.30;99.90;;;;;;5033228;28;20103;-57
2021/01/26 08:36:29;;;;;;;18.75;9.55;;;1.40;99.90;;;;;;5031994;28;20081;-55
2021/01/26 08:39:01;;;;;;;16.73;9.07;;;1.40;99.90;;;;;;5024967;28;20033;-53
2021/01/26 08:41:41;;;;;;;17.02;8.27;;;1.40;99.90;;;;;;5033353;28;20033;-54
2021/01/26 08:44:30;;;;;;;20.50;9.20;;;1.50;99.90;;;;;;5034014;28;20029;-55
2021/01/26 08:46:56;;;;;;;13.63;7.95;;;1.50;99.90;;;;;;5032812;28;20083;-57
2021/01/26 08:49:24;;;;;;;24.17;9.07;;;1.50;99.90;;;;;;5034012;28;20076;-57
2021/01/26 08:51:51;;;;;;;14.25;8.40;;;1.50;99.90;;;;;;5032823;28;20090;-57
2021/01/26 08:54:37;;;;;;;18.70;9.52;;;1.50;99.90;;;;;;5033357;28;20462;-55
2021/01/26 08:57:17;;;;;;;21.98;9.68;;;1.50;99.90;;;;;;5032958;28;20407;-55
2021/01/26 08:59:43;;;;;;;14.88;8.75;;;1.60;99.90;;;;;;5033752;28;20025;-53
2021/01/26 09:02:09;;;;;;;17.92;8.95;;;1.60;99.90;;;;;;5033291;28;20040;-51
2021/01/26 09:04:35;;;;;;;19.55;9.68;;;1.60;99.90;;;;;;5043739;28;20087;-55
2021/01/26 09:07:00;;;;;;;18.08;9.10;;;1.60;99.90;;;;;;5036671;28;20332;-55
2021/01/26 09:09:29;;;;;;;15.07;8.05;;;1.50;99.90;;;;;;5042266;28;20080;-55
2021/01/26 09:12:05;;;;;;;17.10;8.70;;;1.60;99.90;;;;;;5038716;28;20029;-55
2021/01/26 09:14:34;;;;;;;15.32;8.52;;;1.60;99.90;;;;;;5034042;28;20124;-57
2021/01/26 09:17:10;;;;;;;13.45;8.75;;;1.60;99.90;;;;;;5034240;28;20040;-55
2021/01/26 09:19:46;;;;;;;38.10;14.90;;;1.50;99.90;;;;;;5036241;28;20025;-55
2021/01/26 09:22:17;;;;;;;19.70;8.38;;;1.70;99.90;;;;;;5034503;28;20125;-56
2021/01/26 09:24:43;;;;;;;15.65;8.90;;;1.80;99.90;;;;;;5037162;28;20029;-56
2021/01/26 09:27:36;;;;;;;17.15;8.90;;;1.80;99.90;;;;;;5037640;28;20037;-58
2021/01/26 09:30:10;;;;;;;16.85;8.80;;;1.80;99.90;;;;;;5035541;28;20719;-56
2021/01/26 09:32:38;;;;;;;16.05;9.48;;;1.90;99.90;;;;;;5030958;28;20033;-55
2021/01/26 09:35:26;;;;;;;16.98;9.82;;;2.00;99.90;;;;;;5036588;28;20077;-56
2021/01/26 09:38:09;;;;;;;20.55;9.55;;;2.10;99.90;;;;;;5037128;28;20029;-55
2021/01/26 09:40:37;;;;;;;16.13;8.73;;;2.20;99.90;;;;;;5034265;28;20549;-55
2021/01/26 09:43:25;;;;;;;19.38;9.50;;;2.20;99.90;;;;;;5034661;28;20471;-55
2021/01/26 09:46:01;;;;;;;18.40;11.07;;;2.30;99.90;;;;;;5048417;28;20032;-58
2021/01/26 09:48:40;;;;;;;19.23;10.45;;;2.30;99.90;;;;;;5036204;28;20038;-55
2021/01/26 09:51:18;;;;;;;23.73;12.48;;;2.20;99.90;;;;;;5033685;28;20033;-55
2021/01/26 09:53:47;;;;;;;18.77;9.00;;;2.20;99.90;;;;;;5041659;28;20029;-55
2021/01/26 09:56:17;;;;;;;22.80;10.32;;;2.30;99.90;;;;;;5045821;28;20371;-54
2021/01/26 09:58:47;;;;;;;20.45;10.48;;;2.30;99.90;;;;;;5050803;28;20028;-58
2021/01/26 10:01:14;;;;;;;22.15;10.50;;;2.40;99.90;;;;;;5049457;28;20467;-59
2021/01/26 10:03:40;;;;;;;16.92;8.82;;;2.40;99.90;;;;;;5032533;28;20044;-56
2021/01/26 10:06:06;;;;;;;14.65;7.53;;;2.50;99.90;;;;;;5033964;28;20045;-56
2021/01/26 10:08:34;;;;;;;15.13;7.78;;;2.40;99.90;;;;;;5036539;28;20025;-55
2021/01/26 10:11:12;;;;;;;12.90;7.90;;;2.50;99.90;;;;;;5040920;28;20041;-55
2021/01/26 10:13:39;;;;;;;19.95;8.63;;;2.40;99.90;;;;;;5036679;28;20033;-56
2021/01/26 10:16:31;;;;;;;16.50;8.13;;;2.40;99.90;;;;;;5023836;28;20375;-54
2021/01/26 10:18:59;;;;;;;22.40;10.23;;;2.40;99.90;;;;;;5032058;28;20026;-56
2021/01/26 10:21:30;;;;;;;20.85;10.63;;;2.50;99.90;;;;;;5046746;28;20061;-56
2021/01/26 10:24:07;;;;;;;23.67;11.80;;;2.50;99.90;;;;;;5036029;28;20021;-58
2021/01/26 10:26:39;;;;;;;27.10;14.00;;;2.50;99.90;;;;;;5033928;28;20029;-56
2021/01/26 10:29:10;;;;;;;18.83;11.07;;;2.60;99.90;;;;;;5033835;28;20037;-57
2021/01/26 10:31:45;;;;;;;22.52;11.63;;;2.60;99.90;;;;;;5034886;28;20033;-57
2021/01/26 10:34:35;;;;;;;22.92;12.82;;;2.70;99.90;;;;;;5037803;28;20076;-58
2021/01/26 10:37:22;;;;;;;25.33;12.85;;;2.80;99.90;;;;;;5029935;28;20033;-54
2021/01/26 10:40:06;;;;;;;21.95;13.20;;;2.80;99.90;;;;;;5030238;28;20026;-58
2021/01/26 10:42:33;;;;;;;130.35;42.40;;;3.00;99.90;;;;;;5035120;28;20486;-54
2021/01/26 10:45:00;;;;;;;24.20;14.07;;;3.00;99.90;;;;;;5039255;28;20764;-61
2021/01/26 10:47:34;;;;;;;27.50;13.35;;;2.90;99.90;;;;;;5031317;28;20045;-59
2021/01/26 10:50:24;;;;;;;24.38;13.18;;;3.00;99.90;;;;;;5026991;28;20045;-58
2021/01/26 10:52:51;;;;;;;29.55;14.80;;;3.10;99.90;;;;;;5028388;28;20060;-56
2021/01/26 10:55:20;;;;;;;19.10;10.02;;;3.20;99.90;;;;;;5031631;28;20033;-58
2021/01/26 10:57:47;;;;;;;18.85;10.80;;;3.30;99.90;;;;;;5040808;28;20033;-58
2021/01/26 11:00:17;;;;;;;22.48;11.30;;;3.30;99.90;;;;;;5034530;28;20561;-57
2021/01/26 11:02:43;;;;;;;15.82;8.98;;;3.20;99.90;;;;;;5030774;28;20048;-57
2021/01/26 11:05:12;;;;;;;17.42;8.85;;;3.30;99.90;;;;;;5035090;28;20372;-57
2021/01/26 11:07:38;;;;;;;18.13;9.43;;;3.30;99.90;;;;;;5033923;28;20049;-56
2021/01/26 11:10:07;;;;;;;40.45;17.17;;;3.30;99.90;;;;;;5036892;28;20028;-58
2021/01/26 11:12:37;;;;;;;17.70;9.57;;;3.20;99.90;;;;;;5035722;28;20095;-57
2021/01/26 11:15:05;;;;;;;21.10;9.57;;;3.20;99.90;;;;;;5028924;28;20044;-59
2021/01/26 11:17:31;;;;;;;16.70;8.95;;;3.20;99.90;;;;;;5035431;28;20033;-56
2021/01/26 11:19:57;;;;;;;16.58;7.97;;;3.20;99.90;;;;;;5030950;28;20075;-55
2021/01/26 11:22:22;;;;;;;23.48;11.60;;;3.30;99.90;;;;;;5030543;28;20040;-60
2021/01/26 11:24:48;;;;;;;15.90;8.27;;;3.40;99.90;;;;;;5030980;28;20033;-58
2021/01/26 11:27:14;;;;;;;17.77;7.93;;;3.40;99.90;;;;;;5030034;28;20037;-56
2021/01/26 11:29:40;;;;;;;15.77;7.78;;;3.40;99.90;;;;;;5031619;28;20029;-58
2021/01/26 11:32:05;;;;;;;17.58;8.27;;;3.50;99.90;;;;;;5029617;28;20121;-55
2021/01/26 11:34:32;;;;;;;26.60;10.00;;;3.50;99.90;;;;;;5038068;28;20042;-57
2021/01/26 11:36:57;;;;;;;19.70;8.82;;;3.60;99.90;;;;;;5042763;28;20398;-57
2021/01/26 11:39:23;;;;;;;19.25;8.85;;;3.50;99.90;;;;;;5037521;28;20091;-58
2021/01/26 11:41:49;;;;;;;23.50;8.48;;;3.60;99.90;;;;;;5042125;28;20082;-57
2021/01/26 11:44:15;;;;;;;21.02;8.55;;;3.70;99.90;;;;;;5034753;28;20483;-58
2021/01/26 11:46:40;;;;;;;18.73;8.10;;;3.70;99.90;;;;;;5030523;28;20506;-59
2021/01/26 11:49:06;;;;;;;19.63;8.90;;;3.70;99.90;;;;;;5030099;28;20040;-56
2021/01/26 11:51:32;;;;;;;22.98;8.38;;;3.70;99.90;;;;;;5032958;28;20451;-59
2021/01/26 11:53:58;;;;;;;19.80;7.85;;;3.70;99.90;;;;;;5041565;28;20037;-59
2021/01/26 11:56:24;;;;;;;23.33;9.90;;;3.80;99.90;;;;;;5039695;28;20029;-56
2021/01/26 11:58:50;;;;;;;16.33;7.47;;;3.80;99.90;;;;;;5041216;28;20066;-58
2021/01/26 12:01:17;;;;;;;14.43;7.55;;;3.80;99.90;;;;;;5038142;28;20174;-56
2021/01/26 12:03:44;;;;;;;18.08;8.68;;;3.80;99.90;;;;;;5036892;28;20021;-59
2021/01/26 12:06:10;;;;;;;16.58;8.98;;;3.80;99.90;;;;;;5037297;28;20030;-59
2021/01/26 12:08:36;;;;;;;18.50;11.88;;;3.90;99.90;;;;;;5044420;28;20560;-58
2021/01/26 12:11:03;;;;;;;17.50;8.77;;;3.90;99.90;;;;;;5049934;28;20040;-55
2021/01/26 12:13:29;;;;;;;21.05;10.27;;;3.80;99.90;;;;;;5045887;28;20025;-57
2021/01/26 12:15:55;;;;;;;19.63;8.88;;;3.90;99.90;;;;;;5035479;28;20036;-54
2021/01/26 12:18:20;;;;;;;16.85;9.05;;;4.00;99.90;;;;;;5040713;28;20029;-57
2021/01/26 12:20:46;;;;;;;21.08;9.10;;;4.10;99.90;;;;;;5050559;28;20033;-58
2021/01/26 12:23:12;;;;;;;19.65;9.60;;;4.10;99.90;;;;;;5045245;28;20123;-57
2021/01/26 12:25:40;;;;;;;25.58;11.52;;;4.10;99.90;;;;;;5048892;28;20036;-57
2021/01/26 12:28:07;;;;;;;17.88;9.57;;;4.10;99.90;;;;;;5035764;28;20086;-56
2021/01/26 12:30:33;;;;;;;23.63;11.15;;;4.20;99.90;;;;;;5034625;28;20040;-58
2021/01/26 12:32:59;;;;;;;17.00;9.50;;;4.20;99.90;;;;;;5037439;28;20030;-57
2021/01/26 12:35:34;;;;;;;21.42;10.48;;;4.30;99.90;;;;;;5034719;28;20053;-55
2021/01/26 12:38:01;;;;;;;22.42;9.80;;;4.30;99.90;;;;;;5032762;28;20049;-58
2021/01/26 12:40:27;;;;;;;24.02;12.05;;;4.30;99.90;;;;;;5034803;28;20036;-58
2021/01/26 12:42:53;;;;;;;24.25;10.60;;;4.30;99.90;;;;;;5042729;28;20426;-58
2021/01/26 12:45:21;;;;;;;23.85;12.18;;;4.30;99.90;;;;;;5040249;28;20129;-55
2021/01/26 12:47:47;;;;;;;20.27;10.48;;;4.40;99.90;;;;;;5036911;28;20037;-55
2021/01/26 12:50:17;;;;;;;18.48;9.40;;;4.40;99.90;;;;;;5035400;28;20061;-59
2021/01/26 12:52:42;;;;;;;19.00;9.60;;;4.40;99.90;;;;;;5036162;28;20479;-60
2021/01/26 12:55:09;;;;;;;15.48;8.90;;;4.40;99.90;;;;;;5040690;28;20041;-57
2021/01/26 12:57:35;;;;;;;19.33;8.98;;;4.30;99.90;;;;;;5034960;28;20037;-58
2021/01/26 13:00:01;;;;;;;18.23;8.07;;;4.40;99.90;;;;;;5035130;28;20418;-54
2021/01/26 13:02:27;;;;;;;17.85;8.80;;;4.40;99.90;;;;;;5051917;28;20087;-58
2021/01/26 13:04:53;;;;;;;19.48;9.23;;;4.50;99.90;;;;;;5045561;28;20450;-58
2021/01/26 13:07:20;;;;;;;29.02;9.95;;;4.50;99.90;;;;;;5037758;28;20057;-58
2021/01/26 13:09:46;;;;;;;19.98;9.60;;;4.40;99.90;;;;;;5034762;28;20486;-57
2021/01/26 13:12:12;;;;;;;21.45;11.02;;;4.30;99.90;;;;;;5039585;28;20038;-57
2021/01/26 13:14:41;;;;;;;32.05;9.63;;;4.40;99.90;;;;;;5034124;28;20028;-58
2021/01/26 13:17:07;;;;;;;27.67;9.52;;;4.30;99.90;;;;;;5038159;28;20124;-57
2021/01/26 13:19:33;;;;;;;17.30;8.55;;;4.40;99.90;;;;;;5033593;28;20758;-56
2021/01/26 13:21:59;;;;;;;19.60;9.27;;;4.40;99.90;;;;;;5038129;28;20025;-59